Tualatin, Oregon
Current Conditions -  °F | °C
As of 7:53 PM on Thursday 27 Nov 2014 (Local Time) from KUAO Reporting Station
Overcast Overcast  
Wind Chill: 54°   Ceiling: 6000
Heat Index: 54°   Visibility: 10mi
Dew Point: 48°   Wind: 17mph
Humidity: 80%   Direction: 190°S
Pressure: 29.88"   Gusts: 26mph
Location:  45.38°N, 122.75°W
Report Text: KUAO 280353Z AUTO 19015G23KT 10SM SCT034 OVC060 12/09 A2988 RMK AO2 PK WND 19026/0304 SLP119 T01220089
Loading
Personal Weather Stations






























Interactive Weather Map New forecast layout! Learn more

10-Day Weather Forecast

Advertisements
Track Severe Weather on mobile